Terminal Aerodrome Forecast
Issued by NWS Sioux Falls, SD

Home | Current Version | Previous Version | Text Only | Print | Product List | Glossary Off
Versions: 1 2 3 4 5 6 7 8 9 10 11 12

000
FTUS43 KFSD 201136
TAFFSD
TAF
KFSD 201136Z 2012/2112 10005KT P6SM SCT250
     FM201900 13009KT P6SM BKN200
     FM210500 10006KT P6SM BKN060 OVC100=

USA.gov is the U.S. government's official web portal to all federal, state and local government web resources and services.